Latest Weather Observations for Willis Island

IDQ60801

Issued at 10:35 pm EST Thursday 24 April 2014 (issued every 30 minutes, with the page automatically refreshed every 10 minutes)

About weather observations | Map of weather stations | Latest weather observations for QLD | Other Formats
Station Details ID: 200283 Name: WILLIS ISLAND Lat: -16.29 Lon: 149.97 Height: 9.29 m
Data from the previous 72 hours. | See also: Recent months at Willis Island
Date/Time
EST
Temp
°C
App
Temp
°C
Dew
Point
Rel
Hum
%
Delta-T
°C
Wind Press
QNH
hPa
Press
MSL
hPa
Rain
since 9 am
mm
Dir
 
Spd
km/h
Gust
km/h
Spd
kts
Gust
kts
24/10:30pm 26.9 26.7 24.3 86 1.8 E 33 37 18 20 1011.2 - 0.4
24/10:00pm 26.9 26.1 24.0 84 2.0 E 35 39 19 21 1011.3 - 0.4
24/09:30pm 26.8 25.6 23.9 84 2.0 E 37 43 20 23 1011.3 - 0.4
24/09:00pm 26.9 26.5 24.1 85 1.9 E 33 39 18 21 1011.0 1011.0 0.4
24/08:30pm 26.7 26.4 24.2 86 1.7 E 33 39 18 21 1010.8 - 0.4
24/08:00pm 26.9 25.3 24.0 84 2.0 E 39 44 21 24 1010.5 - 0.4
24/07:30pm 26.9 25.7 24.0 84 2.0 E 37 43 20 23 1010.2 - 0.4
24/07:00pm 26.8 26.1 24.2 86 1.8 E 35 43 19 23 1009.8 - 0.4
24/06:30pm 26.4 25.0 24.2 88 1.5 E 39 46 21 25 1009.3 - 0.4
24/06:00pm 26.7 25.3 24.2 86 1.7 E 39 46 21 25 1008.9 1008.9 0.4
24/05:30pm 27.0 26.9 24.6 87 1.7 ESE 33 41 18 22 1008.8 - 0.4
24/05:00pm 27.1 26.2 23.9 82 2.2 ESE 35 43 19 23 1008.6 - 0.4
24/04:30pm 27.2 26.7 24.5 85 1.9 ESE 35 39 19 21 1008.5 - 0.4
24/04:00pm 27.3 27.3 24.4 84 2.0 SE 32 37 17 20 1008.2 - 0.4
24/03:30pm 26.9 26.9 23.7 82 2.2 ESE 30 33 16 18 1008.0 - 0.4
24/03:00pm 26.5 26.4 23.6 84 2.0 ESE 30 37 16 20 1008.1 1008.1 0.4
24/02:30pm 26.5 26.5 23.7 84 1.9 E 30 35 16 19 1008.4 - 0.2
24/02:00pm 26.3 24.1 23.5 84 1.9 E 41 46 22 25 1008.5 - 0.2
24/01:59pm 26.4 24.6 23.6 84 1.9 E 39 43 21 23 1008.6 - 0.2
24/01:30pm 26.6 25.6 24.3 87 1.6 SE 37 44 20 24 1009.1 - 0.2
24/01:00pm 26.9 25.7 24.0 84 2.0 SE 37 44 20 24 1009.5 - 0.2
24/12:46pm 27.2 26.1 24.2 84 2.1 ESE 37 41 20 22 1009.7 - 0.2
24/12:30pm 27.9 28.0 24.6 82 2.3 SSE 32 35 17 19 1009.9 - 0.2
24/12:00pm 27.1 27.9 24.4 85 1.9 SSE 28 33 15 18 1010.4 1010.4 0.2
24/11:30am 26.3 26.7 24.4 89 1.3 SSE 30 33 16 18 1010.7 - 0.2
24/11:00am 26.7 26.1 24.4 87 1.6 SSE 35 41 19 22 1011.0 - 0.2
24/10:30am 28.6 31.1 25.3 82 2.3 SSE 22 24 12 13 1011.3 - 0.0
24/10:00am 28.5 31.3 25.2 82 2.3 ESE 20 24 11 13 1011.5 - 0.0
24/09:30am 28.8 31.7 25.4 82 2.4 ESE 20 22 11 12 1011.8 - 0.0
24/09:00am 28.7 31.5 25.3 82 2.4 ESE 20 24 11 13 1011.8 1011.8 0.0
24/08:30am 28.1 30.9 25.3 85 2.0 SE 20 22 11 12 1011.6 - 0.0
24/08:00am 27.9 31.3 25.3 86 1.8 SE 17 20 9 11 1011.4 - 0.0
24/07:30am 26.8 29.8 24.6 88 1.5 SE 17 19 9 10 1011.0 - 0.0
24/07:00am 26.8 30.1 23.9 84 2.0 ESE 13 17 7 9 1010.6 - 0.0
24/06:30am 26.5 29.5 22.7 79 2.6 ESE 11 13 6 7 1010.3 - 0.0
24/06:00am 26.0 28.4 22.9 83 2.1 ESE 15 19 8 10 1009.9 1009.9 0.0
24/05:30am 25.8 28.1 23.5 87 1.6 ESE 17 19 9 10 1009.6 - 0.0
24/05:00am 26.2 29.6 24.6 91 1.1 SE 15 17 8 9 1009.5 - 0.0
24/04:30am 26.1 30.4 24.2 89 1.3 ESE 9 13 5 7 1009.4 - 0.0
24/04:00am 26.0 29.3 23.8 88 1.5 ESE 13 17 7 9 1009.4 - 0.0
24/03:30am 25.8 29.1 23.2 85 1.8 ESE 11 13 6 7 1009.4 - 0.0
24/03:00am 25.7 27.9 23.2 86 1.7 E 17 20 9 11 1009.4 1009.4 0.0
24/02:30am 26.2 28.6 24.6 91 1.1 E 20 22 11 12 1009.4 - 0.0
24/02:00am 26.0 28.8 24.3 90 1.2 SE 17 19 9 10 1009.5 - 0.0
24/01:30am 26.1 28.6 24.5 91 1.1 ESE 19 20 10 11 1009.8 - 0.0
24/01:00am 26.1 28.6 24.4 90 1.2 SSE 19 20 10 11 1010.4 - 0.0
24/12:30am 26.1 30.5 23.8 87 1.6 E 7 11 4 6 1011.0 - 0.0
24/12:00am 25.9 29.4 23.6 87 1.6 ENE 11 15 6 8 1011.2 1011.2 0.0
 
Date/Time
EST
Temp
°C
App
Temp
°C
Dew
Point
Rel
Hum
%
Delta-T
°C
Wind Press
QNH
hPa
Press
MSL
hPa
Rain
since 9 am
mm
Dir
 
Spd
km/h
Gust
km/h
Spd
kts
Gust
kts
23/11:30pm 25.7 27.9 23.2 86 1.7 NNE 17 22 9 12 1011.6 - 0.0
23/11:00pm 26.1 25.6 23.6 86 1.7 ENE 32 35 17 19 1011.7 - 0.0
23/10:55pm 26.4 26.5 23.9 86 1.7 ENE 30 35 16 19 1011.8 - 0.0
23/10:30pm 27.0 30.6 25.0 89 1.4 ESE 15 17 8 9 1012.0 - 0.0
23/10:00pm 27.0 30.5 24.8 88 1.5 ESE 15 17 8 9 1011.9 - 0.0
23/09:30pm 27.0 30.6 25.0 89 1.4 SE 15 17 8 9 1011.7 - 0.0
23/09:00pm 27.0 30.0 24.7 87 1.6 ESE 17 19 9 10 1011.5 1011.5 0.0
23/08:30pm 27.0 30.1 24.8 88 1.5 ESE 17 20 9 11 1011.3 - 0.0
23/08:00pm 27.0 30.2 25.0 89 1.4 ESE 17 19 9 10 1010.9 - 0.0
23/07:30pm 27.1 30.1 24.7 87 1.7 E 17 20 9 11 1010.7 - 0.0
23/07:00pm 27.3 30.2 24.4 84 2.0 E 17 19 9 10 1010.6 - 0.0
23/06:30pm 27.2 30.7 24.9 87 1.6 E 15 17 8 9 1010.5 - 0.0
23/06:00pm 27.4 30.9 24.8 86 1.8 E 15 17 8 9 1010.4 1010.4 0.0
23/05:30pm 27.5 30.5 24.6 84 2.0 ESE 17 19 9 10 1010.1 - 0.0
23/05:00pm 27.6 31.0 24.6 84 2.1 ESE 15 17 8 9 1009.8 - 0.0
23/04:30pm 27.9 31.8 24.9 84 2.1 ESE 13 15 7 8 1009.4 - 0.0
23/04:00pm 28.2 31.7 24.8 82 2.4 ESE 15 19 8 10 1009.4 - 0.0
23/03:30pm 28.3 31.3 24.6 80 2.6 ESE 17 20 9 11 1009.4 - 0.0
23/03:00pm 28.7 31.7 24.7 79 2.8 ESE 17 20 9 11 1009.4 1009.4 0.0
23/02:30pm 28.8 31.7 24.5 77 3.0 ESE 17 20 9 11 1009.4 - 0.0
23/02:00pm 28.9 31.5 24.6 77 3.0 ESE 19 20 10 11 1009.8 - 0.0
23/01:30pm 28.9 31.4 24.4 76 3.1 ESE 19 20 10 11 1010.2 - 0.0
23/01:00pm 28.9 31.3 24.3 76 3.2 ESE 19 20 10 11 1010.6 - 0.0
23/12:30pm 29.1 31.6 24.7 77 3.1 E 20 22 11 12 1010.6 - 0.0
23/12:00pm 29.5 32.0 24.8 76 3.3 E 20 22 11 12 1010.8 1010.8 0.0
23/11:30am 28.6 30.5 24.4 78 2.9 ENE 22 24 12 13 1011.0 - 0.0
23/11:00am 28.8 30.8 24.6 78 2.9 E 22 24 12 13 1011.5 - 0.0
23/10:30am 28.6 30.3 24.1 76 3.1 E 22 24 12 13 1011.9 - 0.0
23/10:00am 29.3 31.5 24.9 77 3.1 E 22 24 12 13 1012.2 - 0.0
23/09:30am 28.7 30.1 24.2 76 3.1 E 24 28 13 15 1012.3 - 0.0
23/09:00am 28.5 30.5 24.6 79 2.7 E 22 26 12 14 1012.1 1012.1 0.2
23/08:30am 27.9 29.4 24.4 81 2.4 E 24 26 13 14 1011.8 - 0.2
23/08:00am 27.9 29.4 24.4 81 2.4 ENE 24 26 13 14 1011.8 - 0.2
23/07:30am 27.0 28.8 24.3 85 1.9 ENE 22 26 12 14 1011.7 - 0.2
23/07:00am 27.0 28.5 24.4 86 1.8 ENE 24 26 13 14 1011.5 - 0.2
23/06:30am 26.9 28.7 24.3 86 1.8 E 22 26 12 14 1011.4 - 0.2
23/06:00am 26.8 28.1 24.0 84 1.9 E 24 26 13 14 1011.0 1011.0 0.2
23/05:30am 26.6 28.5 24.4 88 1.5 E 22 24 12 13 1011.0 - 0.2
23/05:00am 26.8 29.0 24.8 89 1.4 E 22 24 12 13 1010.9 - 0.2
23/04:30am 26.7 29.2 24.8 89 1.3 E 20 24 11 13 1010.8 - 0.2
23/04:00am 25.8 27.6 23.5 87 1.6 ESE 20 26 11 14 1010.9 - 0.2
23/03:30am 26.6 28.9 25.0 91 1.1 ESE 22 26 12 14 1010.9 - 0.2
23/03:00am 26.7 28.3 25.1 91 1.1 ESE 26 30 14 16 1010.9 1010.9 0.2
23/02:30am 26.7 27.8 25.0 90 1.2 ESE 28 32 15 17 1010.9 - 0.2
23/02:00am 26.4 28.3 25.0 92 1.0 ESE 24 30 13 16 1011.1 - 0.2
23/01:30am 26.2 27.0 24.5 90 1.2 ESE 28 32 15 17 1011.3 - 0.2
23/01:00am 26.0 26.0 23.8 88 1.5 SE 30 35 16 19 1011.6 - 0.2
23/12:30am 26.8 28.3 24.9 89 1.3 SE 26 32 14 17 1012.1 - 0.2
23/12:00am 26.9 28.0 24.9 89 1.4 ESE 28 33 15 18 1012.4 1012.4 0.2
 
Date/Time
EST
Temp
°C
App
Temp
°C
Dew
Point
Rel
Hum
%
Delta-T
°C
Wind Press
QNH
hPa
Press
MSL
hPa
Rain
since 9 am
mm
Dir
 
Spd
km/h
Gust
km/h
Spd
kts
Gust
kts
22/11:30pm 26.9 27.3 25.0 89 1.3 SE 32 35 17 19 1012.8 - 0.2
22/11:00pm 26.8 27.5 24.9 89 1.3 ESE 30 33 16 18 1013.1 - 0.2
22/10:30pm 26.8 27.9 24.9 89 1.3 SE 28 32 15 17 1013.2 - 0.2
22/10:00pm 26.9 27.3 25.0 89 1.3 SE 32 35 17 19 1013.5 - 0.2
22/09:30pm 26.7 27.5 25.1 91 1.1 SE 30 33 16 18 1013.7 - 0.2
22/09:00pm 26.5 26.7 25.1 92 1.0 ESE 33 39 18 21 1013.7 1013.7 0.2
22/08:30pm 27.0 27.6 24.8 88 1.5 SE 30 33 16 18 1013.5 - 0.2
22/08:00pm 27.0 27.2 24.7 87 1.6 SE 32 37 17 20 1013.2 - 0.2
22/07:30pm 27.0 27.0 24.4 86 1.8 SE 32 37 17 20 1012.9 - 0.0
22/07:00pm 26.9 26.7 24.3 86 1.8 SE 33 37 18 20 1012.6 - 0.0
22/06:30pm 27.0 27.4 24.4 86 1.8 SE 30 35 16 19 1012.3 - 0.0
22/06:00pm 27.0 26.9 24.3 85 1.9 SE 32 37 17 20 1012.2 1012.2 0.0
22/05:30pm 27.2 27.6 24.5 85 1.9 SE 30 33 16 18 1012.3 - 0.0
22/05:00pm 27.5 28.3 24.5 84 2.1 SE 28 33 15 18 1012.1 - 0.0
22/04:30pm 27.4 28.0 24.1 82 2.3 SE 28 33 15 18 1011.9 - 0.0
22/04:00pm 28.2 28.8 24.2 79 2.8 SE 28 33 15 18 1011.8 - 0.0
22/03:30pm 28.0 28.4 24.4 81 2.5 SE 30 33 16 18 1011.7 - 0.0
22/03:00pm 28.1 28.5 24.4 80 2.6 SE 30 33 16 18 1011.7 1011.7 0.0
22/02:30pm 28.5 29.8 24.6 79 2.7 ESE 26 30 14 16 1011.9 - 0.0
22/02:00pm 28.8 29.5 24.3 76 3.1 ESE 28 32 15 17 1012.1 - 0.0
22/01:30pm 28.9 30.2 24.1 75 3.3 ESE 24 30 13 16 1012.4 - 0.0
22/01:00pm 29.2 31.2 24.6 76 3.2 ESE 22 26 12 14 1012.7 - 0.0
22/12:30pm 29.2 30.5 24.0 73 3.6 ESE 24 28 13 15 1012.9 - 0.0
22/12:00pm 28.6 29.4 23.8 75 3.3 ESE 26 30 14 16 1013.4 1013.4 0.0
22/11:30am 29.1 29.5 23.7 72 3.7 SE 28 32 15 17 1014.0 - 0.0
22/11:00am 28.9 29.6 24.3 76 3.2 ESE 28 32 15 17 1014.3 - 0.0
22/10:30am 28.1 28.6 24.0 78 2.8 ESE 28 33 15 18 1014.6 - 0.0
22/10:00am 28.3 28.1 24.1 78 2.9 ESE 32 35 17 19 1014.8 - 0.0
22/09:30am 28.4 29.2 24.4 79 2.8 ESE 28 33 15 18 1014.9 - 0.0
22/09:00am 27.8 28.3 24.0 80 2.6 ESE 28 33 15 18 1014.7 1014.7 0.2
22/08:30am 27.3 27.3 23.7 81 2.5 ESE 30 35 16 19 1014.5 - 0.2
22/08:00am 26.9 27.1 23.4 81 2.4 ESE 28 33 15 18 1014.6 - 0.2
22/07:30am 26.5 26.0 23.6 84 2.0 ESE 32 35 17 19 1014.3 - 0.2
22/07:00am 26.4 25.5 22.9 81 2.4 ESE 32 37 17 20 1014.2 - 0.2
22/06:30am 26.3 26.1 23.4 84 2.0 ESE 30 35 16 19 1014.0 - 0.2
22/06:00am 26.4 25.6 23.0 81 2.3 ESE 32 35 17 19 1013.9 1013.9 0.2
22/05:30am 26.2 25.4 23.4 84 1.9 ESE 33 39 18 21 1013.7 - 0.2
22/05:00am 26.1 25.0 23.5 85 1.8 SE 35 41 19 22 1013.6 - 0.2
22/04:30am 26.4 25.5 22.9 81 2.4 ESE 32 37 17 20 1013.5 - 0.2
22/04:00am 26.4 25.5 22.9 81 2.4 SE 32 37 17 20 1013.2 - 0.2
22/03:30am 26.4 25.4 22.7 80 2.5 ESE 32 37 17 20 1013.4 - 0.2
22/03:00am 26.4 25.1 22.5 79 2.6 ESE 33 39 18 21 1013.4 1013.4 0.2
22/02:30am 26.4 24.7 22.5 79 2.6 ESE 35 41 19 22 1013.4 - 0.2
22/02:00am 26.4 24.7 22.5 79 2.6 ESE 35 39 19 21 1013.4 - 0.2
22/01:30am 26.3 24.4 22.1 77 2.8 ESE 35 41 19 22 1013.7 - 0.2
22/01:00am 26.4 24.2 22.1 77 2.9 ESE 37 43 20 23 1014.0 - 0.2
22/12:30am 26.5 24.3 22.2 77 2.9 ESE 37 43 20 23 1014.5 - 0.2
22/12:00am 26.7 24.2 22.4 77 2.9 ESE 39 44 21 24 1014.7 1014.7 0.2
 
Date/Time
EST
Temp
°C
App
Temp
°C
Dew
Point
Rel
Hum
%
Delta-T
°C
Wind Press
QNH
hPa
Press
MSL
hPa
Rain
since 9 am
mm
Dir
 
Spd
km/h
Gust
km/h
Spd
kts
Gust
kts
21/11:30pm 26.5 23.7 21.7 75 3.2 ESE 39 46 21 25 1015.0 - 0.2
21/11:00pm 26.6 23.8 21.8 75 3.2 ESE 39 44 21 24 1015.0 - 0.2

Other Formats:

Comma delimited format used in spreadsheet applications
http://www.bom.gov.au/fwo/IDQ60801/IDQ60801.94299.axf

JavaScript Object Notation format (JSON) in row-major order
http://www.bom.gov.au/fwo/IDQ60801/IDQ60801.94299.json